Terre Haute, Indiana
Current Conditions -  °F | °C
As of 12:53 AM on Sunday 26 Oct 2014 (Local Time) from KHUF Reporting Station
Clear Clear  
Wind Chill: 15°   Ceiling: Unl
Heat Index: 15°   Visibility: 10mi
Dew Point:   Wind: 6mph
Humidity: 58%   Direction: 330°NNW
Pressure: 29.99"   Gusts: NA
Location:  39.47°N, 87.41°W
Report Text: KHUF 260453Z 33005KT 10SM CLR 15/07 A2999 RMK AO2 SLP154 T01500067 402610089
Loading
Personal Weather Stations






























Interactive Weather Map
Tropical Storm Tracking
New forecast layout! Learn more

10-Day Weather Forecast

Advertisements
Track Severe Weather on mobile